Time;durP1;ratioP1;P1;durP2;ratioP2;P2;SDS_P1;SDS_P2;PMS_P1;PMS_P2;Temp;Humidity;BMP_temperature;BMP_pressure;BME280_temperature;BME280_humidity;BME280_pressure;Samples;Min_cycle;Max_cycle;Signal;HPM_P1;HPM_P2
2023/12/02 00:01:25;;;;;;;36.38;22.23;;;;;;;;;;5093244;28;20053;-72
2023/12/02 00:03:51;;;;;;;34.78;20.52;;;;;;;;;;5093151;28;20032;-71
2023/12/02 00:06:17;;;;;;;31.58;20.05;;;;;;;;;;5093003;28;20028;-71
2023/12/02 00:08:43;;;;;;;34.38;20.85;;;;;;;;;;5092516;28;20032;-73
2023/12/02 00:11:09;;;;;;;35.30;19.95;;;;;;;;;;5093128;28;20479;-72
2023/12/02 00:13:35;;;;;;;34.40;20.10;;;;;;;;;;5093008;28;20113;-72
2023/12/02 00:16:01;;;;;;;37.17;20.25;;;;;;;;;;5093676;28;20035;-72
2023/12/02 00:18:26;;;;;;;40.22;21.30;;;;;;;;;;5092576;28;20039;-73
2023/12/02 00:20:52;;;;;;;40.70;20.30;;;;;;;;;;5094145;28;20111;-73
2023/12/02 00:23:18;;;;;;;35.33;19.63;;;;;;;;;;5093374;28;20074;-73
2023/12/02 00:25:44;;;;;;;36.28;20.10;;;;;;;;;;5093641;28;20110;-73
2023/12/02 00:28:10;;;;;;;34.05;19.08;;;;;;;;;;5093731;28;20034;-72
2023/12/02 00:30:36;;;;;;;30.33;18.35;;;;;;;;;;5093656;28;20024;-74
2023/12/02 00:33:02;;;;;;;35.05;19.92;;;;;;;;;;5093852;28;20055;-74
2023/12/02 00:35:28;;;;;;;34.22;19.60;;;;;;;;;;5093323;28;20024;-73
2023/12/02 00:37:54;;;;;;;32.47;19.25;;;;;;;;;;5092367;28;20036;-73
2023/12/02 00:40:20;;;;;;;35.53;19.25;;;;;;;;;;5092592;28;20016;-73
2023/12/02 00:42:46;;;;;;;35.78;19.95;;;;;;;;;;5092278;28;20051;-73
2023/12/02 00:45:12;;;;;;;33.63;20.02;;;;;;;;;;5092189;28;20483;-72
2023/12/02 00:47:38;;;;;;;35.83;19.30;;;;;;;;;;5092511;28;20048;-72
2023/12/02 00:50:04;;;;;;;37.95;20.15;;;;;;;;;;5092437;28;20115;-72
2023/12/02 00:52:30;;;;;;;33.95;19.63;;;;;;;;;;5092157;28;20023;-72
2023/12/02 00:54:56;;;;;;;31.33;18.25;;;;;;;;;;5092153;28;20142;-72
2023/12/02 00:57:22;;;;;;;32.75;19.63;;;;;;;;;;5092042;28;20446;-72
2023/12/02 00:59:48;;;;;;;33.70;18.63;;;;;;;;;;5092254;28;20043;-73
2023/12/02 01:02:14;;;;;;;33.03;19.35;;;;;;;;;;5080882;28;20479;-73
2023/12/02 01:04:40;;;;;;;35.05;19.38;;;;;;;;;;5091656;28;20074;-74
2023/12/02 01:07:06;;;;;;;33.90;19.90;;;;;;;;;;5091873;28;20325;-73
2023/12/02 01:09:32;;;;;;;34.85;18.58;;;;;;;;;;5092249;28;20020;-73
2023/12/02 01:11:58;;;;;;;33.47;19.45;;;;;;;;;;5092990;28;20024;-73
2023/12/02 01:14:25;;;;;;;32.83;18.52;;;;;;;;;;5091812;28;20103;-72
2023/12/02 01:16:51;;;;;;;31.08;18.70;;;;;;;;;;5091731;28;20224;-71
2023/12/02 01:19:17;;;;;;;33.67;18.95;;;;;;;;;;5092142;28;20034;-72
2023/12/02 01:21:43;;;;;;;31.38;17.98;;;;;;;;;;5091490;28;20031;-72
2023/12/02 01:24:09;;;;;;;32.97;19.02;;;;;;;;;;5091555;28;20020;-72
2023/12/02 01:26:35;;;;;;;33.95;19.35;;;;;;;;;;5091457;28;20035;-72
2023/12/02 01:29:01;;;;;;;33.15;19.30;;;;;;;;;;5091543;28;20032;-72
2023/12/02 01:31:27;;;;;;;30.38;17.67;;;;;;;;;;5091493;28;20024;-73
2023/12/02 01:33:53;;;;;;;32.55;18.55;;;;;;;;;;5091899;28;20046;-74
2023/12/02 01:36:19;;;;;;;31.58;17.08;;;;;;;;;;5092450;28;20024;-73
2023/12/02 01:38:45;;;;;;;34.08;19.15;;;;;;;;;;5092048;28;20055;-72
2023/12/02 01:41:11;;;;;;;34.72;18.17;;;;;;;;;;5092271;28;20225;-73
2023/12/02 01:43:37;;;;;;;34.00;18.10;;;;;;;;;;5092126;28;20285;-73
2023/12/02 01:46:03;;;;;;;33.38;18.85;;;;;;;;;;5091501;28;20016;-73
2023/12/02 01:48:32;;;;;;;35.15;18.98;;;;;;;;;;5091099;28;20074;-74
2023/12/02 01:50:58;;;;;;;39.17;18.92;;;;;;;;;;5091908;28;20028;-73
2023/12/02 01:53:24;;;;;;;28.60;17.70;;;;;;;;;;5092273;28;20054;-73
2023/12/02 01:55:50;;;;;;;34.00;18.77;;;;;;;;;;5092174;28;20044;-75
2023/12/02 01:58:16;;;;;;;33.72;18.92;;;;;;;;;;5091908;28;20043;-72
2023/12/02 02:00:42;;;;;;;30.70;18.02;;;;;;;;;;5091793;28;20479;-73
2023/12/02 02:03:08;;;;;;;31.52;19.38;;;;;;;;;;5092100;28;20027;-74
2023/12/02 02:05:34;;;;;;;32.17;18.40;;;;;;;;;;5091705;28;20110;-73
2023/12/02 02:08:00;;;;;;;35.53;19.30;;;;;;;;;;5091507;28;20121;-74
2023/12/02 02:10:26;;;;;;;33.33;18.63;;;;;;;;;;5093900;28;20024;-73
2023/12/02 02:12:52;;;;;;;30.45;18.73;;;;;;;;;;5094260;28;20027;-73
2023/12/02 02:15:18;;;;;;;32.90;19.45;;;;;;;;;;5095986;28;20448;-73
2023/12/02 02:17:45;;;;;;;37.45;19.77;;;;;;;;;;5096550;28;20091;-73
2023/12/02 02:20:11;;;;;;;30.67;18.67;;;;;;;;;;5095889;28;20054;-73
2023/12/02 02:22:37;;;;;;;31.45;19.38;;;;;;;;;;5094061;28;20024;-73
2023/12/02 02:25:03;;;;;;;28.80;17.95;;;;;;;;;;5094222;28;20111;-75
2023/12/02 02:27:29;;;;;;;32.65;18.63;;;;;;;;;;5091853;28;20054;-74
2023/12/02 02:29:55;;;;;;;38.33;19.40;;;;;;;;;;5091788;28;20491;-74
2023/12/02 02:32:21;;;;;;;31.58;19.23;;;;;;;;;;5092183;28;20039;-74
2023/12/02 02:34:47;;;;;;;30.83;18.80;;;;;;;;;;5091676;28;20726;-74
2023/12/02 02:37:13;;;;;;;33.92;18.67;;;;;;;;;;5091029;28;20027;-73
2023/12/02 02:39:39;;;;;;;28.27;18.48;;;;;;;;;;5091197;28;20031;-72
2023/12/02 02:42:08;;;;;;;27.17;17.73;;;;;;;;;;5091715;28;20031;-72
2023/12/02 02:44:35;;;;;;;34.00;18.30;;;;;;;;;;5092429;28;20020;-73
2023/12/02 02:47:02;;;;;;;33.22;18.20;;;;;;;;;;5092470;28;20024;-72
2023/12/02 02:49:28;;;;;;;29.63;17.33;;;;;;;;;;5092838;28;20024;-72
2023/12/02 02:51:54;;;;;;;31.75;18.75;;;;;;;;;;5092998;28;20031;-74
2023/12/02 02:54:20;;;;;;;31.52;19.33;;;;;;;;;;5093574;28;20031;-73
2023/12/02 02:56:46;;;;;;;32.15;17.92;;;;;;;;;;5094556;28;20051;-73
2023/12/02 02:59:12;;;;;;;29.27;18.05;;;;;;;;;;5097260;28;20439;-74
2023/12/02 03:01:39;;;;;;;30.92;18.20;;;;;;;;;;5096170;28;20024;-72
2023/12/02 03:04:05;;;;;;;27.80;18.02;;;;;;;;;;5095349;28;20071;-73
2023/12/02 03:06:31;;;;;;;29.50;18.38;;;;;;;;;;5096126;28;20035;-72
2023/12/02 03:08:57;;;;;;;29.67;18.63;;;;;;;;;;5096111;28;20111;-73
2023/12/02 03:11:23;;;;;;;33.40;19.00;;;;;;;;;;5095884;28;20532;-73
2023/12/02 03:13:49;;;;;;;34.33;19.90;;;;;;;;;;5094455;28;20051;-72
2023/12/02 03:16:17;;;;;;;31.48;18.67;;;;;;;;;;5097256;28;20103;-73
2023/12/02 03:18:43;;;;;;;32.13;19.55;;;;;;;;;;5098587;28;20039;-73
2023/12/02 03:21:09;;;;;;;30.00;18.73;;;;;;;;;;5097575;28;20028;-72
2023/12/02 03:23:35;;;;;;;34.15;18.65;;;;;;;;;;5097263;28;20032;-73
2023/12/02 03:26:01;;;;;;;30.40;18.55;;;;;;;;;;5098208;28;20036;-75
2023/12/02 03:28:27;;;;;;;27.70;17.27;;;;;;;;;;5096173;28;20104;-73
2023/12/02 03:30:53;;;;;;;32.72;19.33;;;;;;;;;;5093403;28;20336;-72
2023/12/02 03:33:19;;;;;;;34.83;18.02;;;;;;;;;;5095034;28;20113;-73
2023/12/02 03:35:45;;;;;;;29.90;18.10;;;;;;;;;;5113348;28;20102;-73
2023/12/02 03:38:11;;;;;;;30.02;18.08;;;;;;;;;;5115127;28;20110;-72
2023/12/02 03:40:37;;;;;;;30.65;17.88;;;;;;;;;;5115165;28;20031;-72
2023/12/02 03:43:03;;;;;;;30.40;17.80;;;;;;;;;;5115978;28;20035;-72
2023/12/02 03:45:29;;;;;;;31.48;17.63;;;;;;;;;;5102814;28;20059;-75
2023/12/02 03:47:55;;;;;;;31.80;18.33;;;;;;;;;;5103166;28;20028;-73
2023/12/02 03:50:21;;;;;;;37.88;18.80;;;;;;;;;;5118350;28;20057;-72
2023/12/02 03:52:47;;;;;;;29.00;17.27;;;;;;;;;;5120340;28;20043;-72
2023/12/02 03:55:14;;;;;;;30.92;17.70;;;;;;;;;;5119978;28;20032;-73
2023/12/02 03:57:40;;;;;;;29.58;17.80;;;;;;;;;;5118982;28;20035;-73
2023/12/02 04:00:11;;;;;;;27.10;17.20;;;;;;;;;;5112785;28;20047;-71
2023/12/02 04:02:39;;;;;;;34.17;18.27;;;;;;;;;;5115638;28;20058;-74
2023/12/02 04:05:09;;;;;;;27.42;16.88;;;;;;;;;;5113091;28;20078;-72
2023/12/02 04:07:35;;;;;;;29.90;17.55;;;;;;;;;;5116130;28;20008;-73
2023/12/02 04:10:02;;;;;;;30.20;17.90;;;;;;;;;;5117635;28;20032;-74
2023/12/02 04:12:29;;;;;;;30.13;17.25;;;;;;;;;;5112315;28;20041;-75
2023/12/02 04:14:55;;;;;;;29.15;17.73;;;;;;;;;;5100212;28;20020;-73
2023/12/02 04:17:21;;;;;;;32.60;17.63;;;;;;;;;;5094658;28;20039;-73
2023/12/02 04:19:47;;;;;;;28.15;17.60;;;;;;;;;;5095567;28;20028;-74
2023/12/02 04:22:13;;;;;;;27.73;17.27;;;;;;;;;;5095204;28;20032;-73
2023/12/02 04:24:39;;;;;;;28.58;17.20;;;;;;;;;;5094036;28;20032;-73
2023/12/02 04:27:07;;;;;;;34.05;18.10;;;;;;;;;;5093877;28;20024;-72
2023/12/02 04:29:35;;;;;;;31.52;17.70;;;;;;;;;;5094340;28;20038;-73
2023/12/02 04:32:01;;;;;;;31.27;17.70;;;;;;;;;;5093927;28;20036;-73
2023/12/02 04:34:27;;;;;;;28.42;17.58;;;;;;;;;;5093918;28;20020;-72
2023/12/02 04:36:53;;;;;;;27.58;17.33;;;;;;;;;;5093850;28;20059;-73
2023/12/02 04:39:21;;;;;;;33.30;18.48;;;;;;;;;;5093809;28;20032;-72
2023/12/02 04:41:47;;;;;;;32.60;18.73;;;;;;;;;;5094574;28;20020;-74
2023/12/02 04:44:13;;;;;;;30.48;17.02;;;;;;;;;;5095601;28;20024;-73
2023/12/02 04:46:42;;;;;;;31.38;18.38;;;;;;;;;;5096613;28;20031;-74
2023/12/02 04:49:08;;;;;;;32.55;18.33;;;;;;;;;;5105220;28;20021;-71
2023/12/02 04:51:34;;;;;;;29.98;18.08;;;;;;;;;;5115584;28;20016;-73
2023/12/02 04:54:00;;;;;;;31.63;19.02;;;;;;;;;;5115008;28;20033;-73
2023/12/02 04:56:26;;;;;;;29.40;18.52;;;;;;;;;;5111791;28;20031;-76
2023/12/02 04:58:52;;;;;;;31.45;19.38;;;;;;;;;;5094629;28;20020;-73
2023/12/02 05:01:18;;;;;;;34.88;19.15;;;;;;;;;;5093408;28;20012;-74
2023/12/02 05:03:44;;;;;;;34.10;19.08;;;;;;;;;;5093433;28;20084;-73
2023/12/02 05:06:17;;;;;;;35.35;18.40;;;;;;;;;;5093134;28;20023;-74
2023/12/02 05:08:46;;;;;;;31.40;18.55;;;;;;;;;;5092943;28;20024;-73
2023/12/02 05:11:20;;;;;;;32.38;18.27;;;;;;;;;;5092788;28;20035;-73
2023/12/02 05:13:46;;;;;;;20.92;13.30;;;;;;;;;;5093116;28;20082;-73
2023/12/02 05:16:12;;;;;;;32.88;18.88;;;;;;;;;;5093335;28;20360;-74
2023/12/02 05:18:42;;;;;;;32.33;18.90;;;;;;;;;;5093155;28;20052;-74
2023/12/02 05:21:09;;;;;;;31.67;18.70;;;;;;;;;;5093672;28;20050;-73
2023/12/02 05:23:35;;;;;;;32.42;18.65;;;;;;;;;;5093833;28;20032;-74
2023/12/02 05:26:01;;;;;;;30.13;17.95;;;;;;;;;;5095856;28;20236;-79
2023/12/02 05:28:28;;;;;;;32.40;18.63;;;;;;;;;;5096298;28;20020;-79
2023/12/02 05:30:54;;;;;;;35.00;19.63;;;;;;;;;;5094969;28;20035;-75
2023/12/02 05:33:22;;;;;;;33.80;18.92;;;;;;;;;;5094102;28;20036;-74
2023/12/02 05:35:48;;;;;;;30.30;18.85;;;;;;;;;;5094834;28;20027;-74
2023/12/02 05:38:14;;;;;;;28.88;17.85;;;;;;;;;;5093878;28;20028;-73
2023/12/02 05:40:40;;;;;;;29.02;17.83;;;;;;;;;;5094144;28;20087;-74
2023/12/02 05:43:06;;;;;;;28.83;18.65;;;;;;;;;;5094569;28;20086;-74
2023/12/02 05:45:32;;;;;;;31.75;18.60;;;;;;;;;;5094115;28;20036;-74
2023/12/02 05:47:58;;;;;;;30.35;18.20;;;;;;;;;;5092921;28;20482;-73
2023/12/02 05:50:24;;;;;;;30.90;19.00;;;;;;;;;;5092448;28;20035;-74
2023/12/02 05:52:50;;;;;;;26.60;17.55;;;;;;;;;;5092380;28;20038;-74
2023/12/02 05:55:16;;;;;;;31.52;18.15;;;;;;;;;;5092851;28;20379;-75
2023/12/02 05:57:46;;;;;;;28.83;17.83;;;;;;;;;;5092793;28;20027;-73
2023/12/02 06:00:12;;;;;;;31.23;18.40;;;;;;;;;;5092508;28;20060;-73
2023/12/02 06:02:38;;;;;;;34.28;18.50;;;;;;;;;;5092456;28;20028;-77
2023/12/02 06:05:04;;;;;;;32.92;18.45;;;;;;;;;;5092473;28;20391;-74
2023/12/02 06:07:30;;;;;;;31.40;18.55;;;;;;;;;;5088738;28;20028;-74
2023/12/02 06:09:56;;;;;;;30.85;19.08;;;;;;;;;;5089589;28;20423;-77
2023/12/02 06:12:22;;;;;;;30.33;18.52;;;;;;;;;;5094585;28;20020;-75
2023/12/02 06:14:49;;;;;;;29.75;18.65;;;;;;;;;;5096042;28;20039;-76
2023/12/02 06:17:15;;;;;;;28.98;17.85;;;;;;;;;;5092032;28;20042;-76
2023/12/02 06:19:41;;;;;;;29.90;17.80;;;;;;;;;;5094901;28;20052;-76
2023/12/02 06:22:07;;;;;;;30.45;19.17;;;;;;;;;;5096477;28;20032;-76
2023/12/02 06:24:33;;;;;;;33.53;19.27;;;;;;;;;;5091263;28;20379;-76
2023/12/02 06:26:59;;;;;;;29.50;18.92;;;;;;;;;;5108773;28;20031;-77
2023/12/02 06:29:25;;;;;;;32.60;19.15;;;;;;;;;;5112257;28;20024;-75
2023/12/02 06:31:51;;;;;;;31.00;18.88;;;;;;;;;;5111293;28;20038;-76
2023/12/02 06:34:18;;;;;;;32.05;18.58;;;;;;;;;;5094605;28;20029;-75
2023/12/02 06:36:47;;;;;;;35.50;19.77;;;;;;;;;;5097461;28;20020;-74
2023/12/02 06:39:13;;;;;;;31.02;18.33;;;;;;;;;;5092903;28;20485;-73
2023/12/02 06:41:41;;;;;;;31.58;19.83;;;;;;;;;;5093654;28;20032;-73
2023/12/02 06:44:07;;;;;;;32.40;19.00;;;;;;;;;;5087429;28;20226;-73
2023/12/02 06:46:33;;;;;;;34.92;19.48;;;;;;;;;;5093875;28;20042;-73
2023/12/02 06:48:59;;;;;;;30.40;19.92;;;;;;;;;;5095055;28;20090;-73
2023/12/02 06:51:28;;;;;;;32.85;19.92;;;;;;;;;;5091016;28;20049;-73
2023/12/02 06:53:54;;;;;;;32.47;18.67;;;;;;;;;;5097438;28;20023;-72
2023/12/02 06:56:21;;;;;;;33.90;18.77;;;;;;;;;;5096750;28;20395;-73
2023/12/02 06:58:49;;;;;;;33.03;19.15;;;;;;;;;;5090992;28;20024;-73
2023/12/02 07:01:28;;;;;;;29.73;19.15;;;;;;;;;;5090985;28;20394;-73
2023/12/02 07:03:55;;;;;;;33.33;19.55;;;;;;;;;;5094131;28;20109;-73
2023/12/02 07:06:21;;;;;;;33.45;19.67;;;;;;;;;;5090100;28;20247;-72
2023/12/02 07:08:47;;;;;;;30.10;18.67;;;;;;;;;;5090667;28;20081;-74
2023/12/02 07:11:13;;;;;;;31.13;18.58;;;;;;;;;;5093860;28;20028;-75
2023/12/02 07:13:40;;;;;;;31.88;20.08;;;;;;;;;;5094404;28;20024;-76
2023/12/02 07:16:06;;;;;;;31.00;19.30;;;;;;;;;;5084813;28;20020;-75
2023/12/02 07:18:32;;;;;;;30.45;19.45;;;;;;;;;;5093424;28;20068;-75
2023/12/02 07:20:58;;;;;;;36.03;20.13;;;;;;;;;;5094836;28;20367;-74
2023/12/02 07:23:28;;;;;;;37.28;20.85;;;;;;;;;;5091183;28;20080;-74
2023/12/02 07:25:55;;;;;;;34.67;19.55;;;;;;;;;;5090750;28;20483;-74
2023/12/02 07:28:21;;;;;;;35.25;19.85;;;;;;;;;;5090916;28;20112;-73
2023/12/02 07:30:49;;;;;;;33.45;18.98;;;;;;;;;;5090897;28;20099;-72
2023/12/02 07:33:16;;;;;;;36.67;19.90;;;;;;;;;;5091203;28;20040;-74
2023/12/02 07:35:42;;;;;;;50.30;30.27;;;;;;;;;;5090701;28;20475;-74
2023/12/02 07:38:08;;;;;;;38.38;22.98;;;;;;;;;;5090481;28;20012;-73
2023/12/02 07:40:35;;;;;;;35.80;20.48;;;;;;;;;;5091576;28;20032;-73
2023/12/02 07:43:01;;;;;;;29.90;19.17;;;;;;;;;;5091804;28;20066;-74
2023/12/02 07:45:30;;;;;;;32.65;20.25;;;;;;;;;;5094940;28;20161;-72
2023/12/02 07:47:57;;;;;;;33.95;20.67;;;;;;;;;;5094743;28;20475;-72
2023/12/02 07:50:23;;;;;;;31.38;20.20;;;;;;;;;;5094439;28;20028;-74
2023/12/02 07:52:49;;;;;;;33.60;20.63;;;;;;;;;;5096446;28;20024;-75
2023/12/02 07:55:15;;;;;;;31.92;20.00;;;;;;;;;;5094984;28;20022;-74
2023/12/02 07:57:41;;;;;;;31.58;19.52;;;;;;;;;;5094048;28;20024;-72
2023/12/02 08:00:10;;;;;;;38.00;21.90;;;;;;;;;;5094861;28;20023;-74
2023/12/02 08:02:36;;;;;;;33.22;20.27;;;;;;;;;;5096642;28;20335;-74
2023/12/02 08:05:02;;;;;;;38.88;23.77;;;;;;;;;;5096026;28;20458;-73
2023/12/02 08:07:28;;;;;;;37.92;21.80;;;;;;;;;;5099063;28;20441;-73
2023/12/02 08:09:54;;;;;;;32.25;20.52;;;;;;;;;;5093481;28;20020;-73
2023/12/02 08:12:20;;;;;;;33.72;20.10;;;;;;;;;;5093937;28;20423;-72
2023/12/02 08:14:47;;;;;;;36.45;20.70;;;;;;;;;;5093960;28;20025;-72
2023/12/02 08:17:13;;;;;;;42.53;25.25;;;;;;;;;;5093628;28;20039;-73
2023/12/02 08:19:39;;;;;;;38.67;22.60;;;;;;;;;;5093728;28;20406;-71
2023/12/02 08:22:05;;;;;;;44.05;24.38;;;;;;;;;;5093651;28;20032;-74
2023/12/02 08:24:32;;;;;;;39.42;22.13;;;;;;;;;;5093550;28;20028;-74
2023/12/02 08:26:58;;;;;;;43.10;22.88;;;;;;;;;;5093530;28;20028;-74
2023/12/02 08:29:24;;;;;;;38.08;22.73;;;;;;;;;;5094577;28;20516;-75
2023/12/02 08:31:50;;;;;;;45.80;27.35;;;;;;;;;;5094135;28;20024;-72
2023/12/02 08:34:16;;;;;;;41.83;22.35;;;;;;;;;;5099554;28;20044;-75
2023/12/02 08:36:43;;;;;;;41.58;22.58;;;;;;;;;;5095041;28;20096;-74
2023/12/02 08:39:09;;;;;;;47.25;24.05;;;;;;;;;;5095847;28;20099;-73
2023/12/02 08:41:36;;;;;;;38.25;23.05;;;;;;;;;;5092848;28;20035;-73
2023/12/02 08:44:02;;;;;;;41.33;22.02;;;;;;;;;;5093228;28;20057;-72
2023/12/02 08:46:28;;;;;;;39.70;23.20;;;;;;;;;;5097342;28;20376;-75
2023/12/02 08:48:54;;;;;;;157.95;80.82;;;;;;;;;;5095642;28;20465;-74
2023/12/02 08:51:21;;;;;;;106.35;54.53;;;;;;;;;;5096960;28;20090;-74
2023/12/02 08:53:48;;;;;;;59.78;32.40;;;;;;;;;;5093875;28;20471;-76
2023/12/02 08:56:14;;;;;;;46.33;26.50;;;;;;;;;;5095214;28;20055;-74
2023/12/02 08:58:40;;;;;;;37.00;21.85;;;;;;;;;;5092472;28;20052;-75
2023/12/02 09:01:06;;;;;;;36.80;21.60;;;;;;;;;;5094587;28;20028;-75
2023/12/02 09:03:32;;;;;;;33.75;20.48;;;;;;;;;;5095173;28;20099;-75
2023/12/02 09:05:58;;;;;;;43.30;23.77;;;;;;;;;;5092944;28;20059;-74
2023/12/02 09:08:24;;;;;;;39.30;22.70;;;;;;;;;;5092925;28;20466;-75
2023/12/02 09:10:50;;;;;;;33.45;21.30;;;;;;;;;;5092409;28;20028;-76
2023/12/02 09:13:34;;;;;;;35.70;20.95;;;;;;;;;;5092490;28;20091;-75
2023/12/02 09:16:00;;;;;;;36.00;21.17;;;;;;;;;;5092404;28;20464;-73
2023/12/02 09:18:26;;;;;;;33.22;21.10;;;;;;;;;;5092138;28;20046;-73
2023/12/02 09:20:55;;;;;;;34.92;20.83;;;;;;;;;;5092334;28;20439;-74
2023/12/02 09:23:22;;;;;;;36.03;21.10;;;;;;;;;;5091939;28;20483;-74
2023/12/02 09:25:50;;;;;;;32.65;20.70;;;;;;;;;;5092090;28;20077;-73
2023/12/02 09:28:17;;;;;;;36.63;20.75;;;;;;;;;;5092176;28;20024;-73
2023/12/02 09:30:58;;;;;;;36.08;21.35;;;;;;;;;;5091987;28;20540;-73
2023/12/02 09:33:25;;;;;;;56.88;31.63;;;;;;;;;;5092581;28;20104;-74
2023/12/02 09:35:54;;;;;;;41.40;23.35;;;;;;;;;;5092150;28;20024;-74
2023/12/02 09:38:21;;;;;;;39.97;21.38;;;;;;;;;;5092055;28;20020;-73
2023/12/02 09:40:49;;;;;;;35.17;21.13;;;;;;;;;;5093189;28;20031;-75
2023/12/02 09:43:18;;;;;;;32.22;19.38;;;;;;;;;;5092897;28;20085;-74
2023/12/02 09:46:04;;;;;;;34.53;19.95;;;;;;;;;;5093548;28;20444;-74
2023/12/02 09:48:34;;;;;;;35.22;20.15;;;;;;;;;;5095832;28;20400;-74
2023/12/02 09:51:06;;;;;;;31.63;19.48;;;;;;;;;;5099065;28;20047;-76
2023/12/02 09:53:44;;;;;;;32.85;19.65;;;;;;;;;;5103383;28;20024;-74
2023/12/02 09:56:20;;;;;;;33.13;20.60;;;;;;;;;;5104846;28;20057;-74
2023/12/02 09:58:47;;;;;;;37.60;22.20;;;;;;;;;;5094087;28;20077;-74
2023/12/02 10:01:31;;;;;;;52.08;25.42;;;;;;;;;;5092232;28;20059;-74
2023/12/02 10:04:03;;;;;;;38.92;22.50;;;;;;;;;;5092875;28;20452;-74
2023/12/02 10:06:29;;;;;;;34.25;21.30;;;;;;;;;;5091874;28;20032;-75
2023/12/02 10:08:55;;;;;;;31.00;19.55;;;;;;;;;;5090606;28;20032;-75
2023/12/02 10:11:26;;;;;;;32.75;20.02;;;;;;;;;;5091737;28;20085;-74
2023/12/02 10:13:53;;;;;;;32.50;20.33;;;;;;;;;;5091916;28;20020;-74
2023/12/02 10:16:20;;;;;;;31.02;20.30;;;;;;;;;;5091861;28;20424;-78
2023/12/02 10:18:49;;;;;;;34.50;20.15;;;;;;;;;;5091079;28;20034;-72
2023/12/02 10:21:17;;;;;;;32.03;20.00;;;;;;;;;;5091255;28;20509;-71
2023/12/02 10:23:57;;;;;;;32.25;19.40;;;;;;;;;;5091396;28;20474;-73
2023/12/02 10:26:32;;;;;;;35.70;20.73;;;;;;;;;;5091377;28;20092;-71
2023/12/02 10:29:05;;;;;;;33.28;19.45;;;;;;;;;;5091410;28;20367;-71
2023/12/02 10:31:31;;;;;;;30.90;19.63;;;;;;;;;;5091445;28;20032;-72
2023/12/02 10:34:13;;;;;;;31.38;19.65;;;;;;;;;;5091755;28;20028;-73
2023/12/02 10:36:39;;;;;;;31.77;18.85;;;;;;;;;;5091492;28;20054;-73
2023/12/02 10:39:09;;;;;;;29.70;18.88;;;;;;;;;;5091333;28;20069;-73
2023/12/02 10:41:38;;;;;;;30.20;18.95;;;;;;;;;;5091303;28;20072;-72
2023/12/02 10:44:07;;;;;;;32.38;18.73;;;;;;;;;;5096520;28;20027;-73
2023/12/02 10:46:33;;;;;;;30.67;19.23;;;;;;;;;;5095252;28;20020;-73
2023/12/02 10:49:00;;;;;;;32.45;19.20;;;;;;;;;;5096265;28;20049;-73
2023/12/02 10:51:27;;;;;;;28.55;18.77;;;;;;;;;;5095367;28;20456;-73
2023/12/02 10:53:55;;;;;;;32.55;18.98;;;;;;;;;;5094967;28;20024;-73
2023/12/02 10:56:23;;;;;;;28.65;18.30;;;;;;;;;;5094805;28;20028;-74
2023/12/02 10:58:50;;;;;;;33.17;18.02;;;;;;;;;;5096176;28;20111;-76
2023/12/02 11:01:26;;;;;;;29.25;17.80;;;;;;;;;;5095432;28;20020;-73
2023/12/02 11:03:58;;;;;;;47.78;24.77;;;;;;;;;;5095117;28;20020;-73
2023/12/02 11:06:30;;;;;;;34.22;18.70;;;;;;;;;;5093291;28;20024;-73
2023/12/02 11:09:17;;;;;;;31.45;17.55;;;;;;;;;;5090865;28;20039;-74
2023/12/02 11:11:43;;;;;;;27.73;16.05;;;;;;;;;;5091578;28;20088;-73
2023/12/02 11:14:18;;;;;;;26.92;17.05;;;;;;;;;;5091413;28;20479;-73
2023/12/02 11:17:06;;;;;;;26.13;16.52;;;;;;;;;;5091551;28;20359;-72
2023/12/02 11:19:51;;;;;;;30.25;15.93;;;;;;;;;;5089077;28;20165;-74
2023/12/02 11:22:17;;;;;;;;;;;;;;;;;;5095077;28;20049;-73
2023/12/02 11:24:43;;;;;;;25.38;14.52;;;;;;;;;;5094635;28;20010;-74
2023/12/02 11:27:27;;;;;;;28.40;16.88;;;;;;;;;;5096182;28;20114;-75
2023/12/02 11:30:13;;;;;;;28.77;16.02;;;;;;;;;;5099360;28;20382;-74
2023/12/02 11:32:39;;;;;;;26.80;16.08;;;;;;;;;;5103955;28;20020;-73
2023/12/02 11:35:24;;;;;;;25.15;15.85;;;;;;;;;;5099554;28;20024;-72
2023/12/02 11:38:05;;;;;;;29.35;15.80;;;;;;;;;;5095603;28;20387;-72
2023/12/02 11:40:31;;;;;;;25.17;14.35;;;;;;;;;;5095728;28;20512;-73
2023/12/02 11:43:17;;;;;;;21.27;13.07;;;;;;;;;;5095796;28;20028;-73
2023/12/02 11:45:47;;;;;;;21.92;12.88;;;;;;;;;;5095155;28;20028;-73
2023/12/02 11:48:17;;;;;;;21.10;12.77;;;;;;;;;;5093600;28;20448;-73
2023/12/02 11:51:02;;;;;;;18.55;11.38;;;;;;;;;;5093714;28;20123;-73
2023/12/02 11:53:28;;;;;;;22.42;11.52;;;;;;;;;;5094729;28;20020;-72
2023/12/02 11:56:11;;;;;;;16.40;10.45;;;;;;;;;;5095261;28;20160;-74
2023/12/02 11:58:53;;;;;;;22.80;10.82;;;;;;;;;;5098432;28;20487;-73
2023/12/02 12:01:19;;;;;;;20.55;11.18;;;;;;;;;;5096712;28;20031;-72
2023/12/02 12:03:54;;;;;;;32.80;17.67;;;;;;;;;;5096108;28;20028;-73
2023/12/02 12:06:20;;;;;;;;;;;;;;;;;;5092809;28;20032;-73
2023/12/02 12:08:56;;;;;;;16.30;10.45;;;;;;;;;;5093426;28;20405;-71
2023/12/02 12:11:22;;;;;;;19.25;12.40;;;;;;;;;;5093535;28;20035;-73
2023/12/02 12:13:49;;;;;;;15.35;9.98;;;;;;;;;;5093818;28;20453;-71
2023/12/02 12:16:15;;;;;;;14.05;9.73;;;;;;;;;;5094616;28;20387;-72
2023/12/02 12:18:42;;;;;;;19.70;10.82;;;;;;;;;;5093636;28;20034;-74
2023/12/02 12:21:09;;;;;;;16.75;9.15;;;;;;;;;;5093736;28;20047;-73
2023/12/02 12:23:35;;;;;;;16.33;9.07;;;;;;;;;;5094163;28;20028;-71
2023/12/02 12:26:03;;;;;;;18.35;9.27;;;;;;;;;;5093430;28;20120;-73
2023/12/02 12:28:31;;;;;;;30.05;17.77;;;;;;;;;;5093089;28;20039;-73
2023/12/02 12:30:57;;;;;;;17.88;10.90;;;;;;;;;;5097105;28;20024;-73
2023/12/02 12:33:23;;;;;;;16.42;10.60;;;;;;;;;;5102006;28;20052;-72
2023/12/02 12:35:49;;;;;;;20.17;12.70;;;;;;;;;;5102119;28;20048;-73
2023/12/02 12:38:15;;;;;;;15.95;9.18;;;;;;;;;;5100763;28;20368;-74
2023/12/02 12:40:42;;;;;;;17.40;8.30;;;;;;;;;;5103649;28;20514;-74
2023/12/02 12:43:09;;;;;;;14.35;8.80;;;;;;;;;;5100195;28;20067;-75
2023/12/02 12:45:35;;;;;;;12.80;8.50;;;;;;;;;;5096981;28;20543;-72
2023/12/02 12:48:01;;;;;;;16.13;10.38;;;;;;;;;;5096788;28;20123;-73
2023/12/02 12:50:33;;;;;;;12.77;8.90;;;;;;;;;;5097645;28;20024;-73
2023/12/02 12:53:12;;;;;;;13.25;7.65;;;;;;;;;;5096326;28;20028;-74
2023/12/02 12:55:42;;;;;;;12.82;8.00;;;;;;;;;;5097135;28;20020;-73
2023/12/02 12:58:13;;;;;;;13.88;7.53;;;;;;;;;;5094864;28;20023;-74
2023/12/02 13:00:40;;;;;;;11.98;7.25;;;;;;;;;;5094057;28;20024;-73
2023/12/02 13:03:06;;;;;;;10.82;6.57;;;;;;;;;;5092614;28;20077;-73
2023/12/02 13:05:39;;;;;;;63.10;26.50;;;;;;;;;;5092408;28;20035;-72
2023/12/02 13:08:20;;;;;;;16.92;9.48;;;;;;;;;;5092264;28;20035;-73
2023/12/02 13:10:47;;;;;;;13.57;6.78;;;;;;;;;;5096202;28;20024;-75
2023/12/02 13:13:14;;;;;;;10.48;6.90;;;;;;;;;;5099495;28;20493;-72
2023/12/02 13:15:42;;;;;;;8.45;5.78;;;;;;;;;;5096808;28;20028;-74
2023/12/02 13:18:09;;;;;;;9.73;5.72;;;;;;;;;;5092356;28;20028;-75
2023/12/02 13:20:36;;;;;;;9.13;5.82;;;;;;;;;;5096202;28;20027;-72
2023/12/02 13:23:05;;;;;;;10.65;6.20;;;;;;;;;;5093604;28;20032;-75
2023/12/02 13:25:37;;;;;;;16.35;8.25;;;;;;;;;;5102656;28;20031;-75
2023/12/02 13:28:07;;;;;;;16.33;9.02;;;;;;;;;;5094770;28;20387;-71
2023/12/02 13:30:35;;;;;;;17.17;10.15;;;;;;;;;;5099918;28;20079;-73
2023/12/02 13:33:14;;;;;;;26.13;14.90;;;;;;;;;;5101107;28;20077;-75
2023/12/02 13:35:47;;;;;;;17.43;9.23;;;;;;;;;;5101456;28;20036;-74
2023/12/02 13:38:18;;;;;;;15.13;8.85;;;;;;;;;;5103365;28;20262;-73
2023/12/02 13:40:47;;;;;;;15.60;9.65;;;;;;;;;;5098145;28;20037;-71
2023/12/02 13:43:15;;;;;;;15.57;9.15;;;;;;;;;;5092226;28;20028;-73
2023/12/02 13:45:41;;;;;;;13.93;8.63;;;;;;;;;;5092262;28;20024;-71
2023/12/02 13:48:22;;;;;;;12.90;7.90;;;;;;;;;;5092004;28;20479;-73
2023/12/02 13:50:54;;;;;;;13.43;8.27;;;;;;;;;;5092110;28;20501;-73
2023/12/02 13:53:20;;;;;;;13.20;8.65;;;;;;;;;;5101651;28;20016;-73
2023/12/02 13:55:52;;;;;;;11.65;7.32;;;;;;;;;;5101158;28;20035;-74
2023/12/02 13:58:20;;;;;;;18.13;7.82;;;;;;;;;;5093150;28;20034;-73
2023/12/02 14:01:25;;;;;;;15.32;9.13;;;;;;;;;;5100337;28;20028;-72
2023/12/02 14:04:06;;;;;;;17.42;9.93;;;;;;;;;;5040040;28;20581;-73
2023/12/02 14:06:42;;;;;;;26.08;10.48;;;;;;;;;;5038588;28;20033;-73
2023/12/02 14:09:09;;;;;;;29.23;13.90;;;;;;;;;;5086798;28;20036;-73
2023/12/02 14:11:36;;;;;;;29.73;15.68;;;;;;;;;;5105312;28;20046;-73
2023/12/02 14:14:24;;;;;;;29.35;13.10;;;;;;;;;;5099436;28;20043;-73
2023/12/02 14:16:51;;;;;;;31.10;13.43;;;;;;;;;;5093524;28;20028;-72
2023/12/02 14:19:20;;;;;;;35.83;14.77;;;;;;;;;;5092047;28;20081;-73
2023/12/02 14:22:01;;;;;;;35.72;16.25;;;;;;;;;;5094016;28;20028;-73
2023/12/02 14:24:45;;;;;;;45.08;16.15;;;;;;;;;;5093456;28;20509;-72